Time;durP1;ratioP1;P1;durP2;ratioP2;P2;SDS_P1;SDS_P2;PMS_P1;PMS_P2;Temp;Humidity;BMP_temperature;BMP_pressure;BME280_temperature;BME280_humidity;BME280_pressure;Samples;Min_cycle;Max_cycle;Signal;HPM_P1;HPM_P2
2022/12/02 00:02:24;;;;;;;8.93;3.80;;;13.40;99.90;;;14.09;46.81;102042.47;4817244;28;97425;-49
2022/12/02 00:04:58;;;;;;;11.90;4.10;;;13.50;99.90;;;14.08;51.35;102037.19;4818156;28;98225;-48
2022/12/02 00:07:24;;;;;;;6.30;2.33;;;13.40;99.90;;;14.16;52.68;102029.88;4819671;28;97674;-50
2022/12/02 00:09:51;;;;;;;12.00;3.57;;;13.50;99.90;;;14.16;50.80;102029.88;4815309;28;114632;-47
2022/12/02 00:12:24;;;;;;;7.53;2.73;;;13.50;99.90;;;14.26;52.33;102037.53;4805938;28;96890;-48
2022/12/02 00:15:02;;;;;;;4.43;1.80;;;13.70;99.90;;;14.51;52.21;102048.34;4814835;28;97505;-48
2022/12/02 00:17:28;;;;;;;4.00;2.03;;;14.10;99.90;;;14.75;51.38;102046.69;4812490;29;97164;-46
2022/12/02 00:19:54;;;;;;;3.00;2.03;;;14.40;99.90;;;15.03;50.59;102052.00;4820072;28;101924;-47
2022/12/02 00:22:20;;;;;;;5.63;2.53;;;14.80;99.90;;;15.22;50.33;102043.47;4819467;28;98170;-49
2022/12/02 00:24:46;;;;;;;5.90;2.93;;;15.10;99.90;;;15.30;48.74;102033.44;4814614;28;105264;-51
2022/12/02 00:27:11;;;;;;;3.67;1.77;;;15.20;99.60;;;15.31;49.66;102045.81;4807233;29;98469;-46
2022/12/02 00:29:37;;;;;;;5.17;2.67;;;15.10;99.90;;;15.46;49.71;102027.53;4812911;28;116471;-47
2022/12/02 00:32:04;;;;;;;4.97;2.43;;;15.30;99.90;;;15.51;49.10;102027.41;4818179;28;98690;-49
2022/12/02 00:34:29;;;;;;;7.97;3.23;;;15.30;99.90;;;15.31;43.94;102029.84;4819203;28;100686;-46
2022/12/02 00:36:55;;;;;;;4.40;1.50;;;15.00;96.80;;;15.25;50.17;102024.75;4817609;28;99094;-46
2022/12/02 00:39:21;;;;;;;7.17;2.80;;;14.70;99.90;;;15.12;47.19;102025.16;4819139;28;107490;-46
2022/12/02 00:41:46;;;;;;;3.03;1.70;;;14.50;99.20;;;14.83;50.25;102027.88;4814204;28;99789;-50
2022/12/02 00:46:57;;;;;;;8.53;2.63;;;14.10;99.40;;;14.96;50.20;102023.91;4816168;28;98139;-48
2022/12/02 00:49:22;;;;;;;6.63;2.77;;;14.30;99.90;;;14.59;48.28;102024.19;4821289;28;113788;-50
2022/12/02 00:51:48;;;;;;;3.83;2.03;;;13.80;98.30;;;14.14;40.76;102023.75;4815652;28;120838;-48
2022/12/02 00:54:14;;;;;;;5.33;3.50;;;13.30;97.30;;;13.81;44.76;102021.13;4818722;28;97465;-50
2022/12/02 00:56:41;;;;;;;7.10;2.70;;;12.80;98.70;;;13.28;43.91;102017.25;4817516;28;99058;-46
2022/12/02 00:59:06;;;;;;;5.07;2.30;;;12.30;99.20;;;12.80;43.53;102010.44;4818206;28;97656;-46
2022/12/02 01:01:34;;;;;;;9.83;3.40;;;11.80;99.90;;;12.46;46.28;102012.97;4817078;28;105070;-56
2022/12/02 01:04:00;;;;;;;7.03;2.73;;;11.60;99.90;;;12.23;48.73;102014.38;4819686;28;97241;-46
2022/12/02 01:06:26;;;;;;;6.77;3.40;;;11.30;99.90;;;11.88;46.24;102008.91;4816498;28;102310;-47
2022/12/02 01:08:51;;;;;;;7.57;2.83;;;11.10;99.90;;;11.62;47.60;101996.16;4816565;28;100980;-45
2022/12/02 01:11:18;;;;;;;6.33;3.63;;;10.80;99.90;;;11.56;48.10;102001.53;4815429;28;97123;-47
2022/12/02 01:13:43;;;;;;;8.27;3.33;;;10.70;99.90;;;11.40;50.18;102007.13;4813611;28;96897;-48
2022/12/02 01:16:09;;;;;;;8.57;3.13;;;10.50;99.90;;;11.17;48.60;102005.78;4820545;28;98690;-48
2022/12/02 01:18:35;;;;;;;9.10;3.00;;;10.40;99.90;;;11.09;49.51;102012.06;4814859;28;97307;-51
2022/12/02 01:21:01;;;;;;;7.93;2.97;;;10.30;99.90;;;10.95;48.76;102005.22;4818656;28;116436;-48
2022/12/02 01:23:27;;;;;;;8.07;3.10;;;10.30;99.90;;;10.90;50.34;101991.25;4817954;28;98598;-47
2022/12/02 01:25:52;;;;;;;7.47;2.97;;;10.20;99.90;;;11.01;53.65;101999.88;4826836;28;97296;-49
2022/12/02 01:28:18;;;;;;;7.27;3.23;;;10.20;99.90;;;10.97;51.87;101998.16;4824231;29;102910;-48
2022/12/02 01:30:44;;;;;;;7.17;3.07;;;10.20;99.90;;;11.00;56.10;101997.25;4832930;28;99371;-47
2022/12/02 01:33:10;;;;;;;9.53;3.73;;;10.20;99.90;;;10.88;50.84;101993.03;4833911;28;97565;-46
2022/12/02 01:35:36;;;;;;;7.63;2.90;;;10.20;99.90;;;10.79;50.57;101990.53;4847109;28;97513;-49
2022/12/02 01:38:01;;;;;;;6.13;3.27;;;10.10;99.90;;;10.86;52.00;101994.84;4835057;28;108449;-47
2022/12/02 01:40:28;;;;;;;8.33;3.30;;;10.10;99.90;;;10.76;48.75;101993.22;4836086;28;114449;-49
2022/12/02 01:42:55;;;;;;;8.73;3.27;;;10.10;99.90;;;10.68;49.76;101990.69;4818537;28;97024;-46
2022/12/02 01:45:21;;;;;;;6.03;2.53;;;10.10;99.90;;;10.66;48.85;101989.84;4839322;28;97299;-46
2022/12/02 01:47:47;;;;;;;10.87;3.70;;;10.10;99.90;;;10.80;55.30;101989.63;4818353;28;104541;-49
2022/12/02 01:50:16;;;;;;;10.50;2.67;;;10.10;99.90;;;10.87;51.08;101988.66;4836862;28;107411;-50
2022/12/02 01:52:42;;;;;;;7.20;3.50;;;10.20;99.90;;;11.17;59.91;101989.06;4831767;28;98416;-51
2022/12/02 01:55:18;;;;;;;9.13;4.07;;;10.30;99.90;;;11.00;48.56;101987.56;4839183;28;96896;-52
2022/12/02 01:57:44;;;;;;;5.27;3.17;;;10.40;99.90;;;10.88;48.76;101987.75;4825160;28;97699;-48
2022/12/02 02:00:12;;;;;;;8.73;3.50;;;10.20;99.90;;;10.85;51.23;101987.81;4843605;28;97700;-51
2022/12/02 02:02:39;;;;;;;4.30;2.97;;;10.20;99.90;;;11.20;60.39;101989.84;4834625;28;96851;-50
2022/12/02 02:05:10;;;;;;;8.20;4.27;;;10.40;99.90;;;11.27;50.54;101985.31;4831912;28;97271;-52
2022/12/02 02:07:38;;;;;;;3.83;2.37;;;10.60;99.90;;;11.32;56.21;101972.94;4821015;28;97477;-47
2022/12/02 02:10:10;;;;;;;8.10;3.33;;;10.60;99.90;;;11.63;54.76;101974.09;4816316;29;101676;-50
2022/12/02 02:12:36;;;;;;;6.87;2.97;;;10.90;99.90;;;11.84;57.67;101988.69;4837535;28;97030;-50
2022/12/02 02:15:06;;;;;;;7.50;2.93;;;11.10;99.90;;;12.13;57.03;101990.75;4832592;28;98719;-47
2022/12/02 02:17:32;;;;;;;12.40;4.03;;;11.30;99.90;;;12.35;56.24;101995.59;4816898;28;98837;-46
2022/12/02 02:19:57;;;;;;;10.10;2.93;;;11.70;99.90;;;12.25;51.35;101983.47;4815585;29;97459;-46
2022/12/02 02:23:05;;;;;;;10.30;3.73;;;11.50;99.90;;;12.23;48.02;101974.69;4838029;28;110674;-47
2022/12/02 02:25:33;;;;;;;9.17;4.00;;;11.50;99.90;;;12.06;47.33;101981.22;4835765;28;97288;-48
2022/12/02 02:28:00;;;;;;;8.20;3.40;;;11.20;99.90;;;11.77;46.74;101975.59;4838454;28;97386;-50
2022/12/02 02:30:29;;;;;;;7.90;3.50;;;11.00;99.90;;;11.75;53.44;101977.41;4838534;28;97179;-48
2022/12/02 02:32:56;;;;;;;10.10;4.27;;;10.80;99.90;;;11.56;48.99;101976.88;4844141;28;97030;-50
2022/12/02 02:35:22;;;;;;;11.67;4.03;;;10.80;99.90;;;11.55;50.41;101962.78;4845717;28;97797;-48
2022/12/02 02:37:49;;;;;;;5.83;2.63;;;10.70;99.90;;;11.79;58.49;101964.13;4833861;28;119607;-49
2022/12/02 02:40:17;;;;;;;10.37;4.20;;;10.80;99.90;;;11.75;51.60;101961.56;4837343;28;97206;-52
2022/12/02 02:42:47;;;;;;;10.10;4.07;;;10.90;99.90;;;11.59;48.65;101951.28;4821284;28;96767;-48
2022/12/02 02:45:13;;;;;;;8.53;4.30;;;10.80;99.90;;;11.43;50.83;101954.22;4842477;28;97303;-51
2022/12/02 02:47:39;;;;;;;10.10;4.03;;;10.60;99.90;;;11.46;56.38;101955.06;4837762;28;97475;-56
2022/12/02 02:50:06;;;;;;;9.93;3.37;;;10.60;99.90;;;11.56;51.08;101948.66;4835166;28;102936;-50
2022/12/02 02:52:32;;;;;;;10.07;3.70;;;10.70;99.90;;;11.40;50.09;101952.50;4840463;28;97206;-50
2022/12/02 02:54:58;;;;;;;7.07;3.53;;;10.60;99.90;;;11.33;52.12;101946.47;4839632;28;97323;-51
2022/12/02 02:57:24;;;;;;;12.87;4.90;;;10.50;99.90;;;11.44;53.70;101937.50;4836071;28;115164;-47
2022/12/02 02:59:52;;;;;;;11.33;4.73;;;10.60;99.90;;;11.25;50.61;101944.88;4825821;28;111901;-47
2022/12/02 03:02:19;;;;;;;10.87;4.33;;;10.50;99.90;;;11.15;52.39;101944.19;4825601;29;111815;-45
2022/12/02 03:04:45;;;;;;;11.30;4.93;;;10.40;99.90;;;11.18;53.93;101936.19;4818428;28;105690;-48
2022/12/02 03:07:12;;;;;;;7.77;3.60;;;10.40;99.90;;;11.50;58.38;101929.44;4842783;28;102196;-49
2022/12/02 03:09:38;;;;;;;12.20;3.97;;;10.70;99.90;;;11.54;53.82;101926.69;4815453;28;96736;-48
2022/12/02 03:12:05;;;;;;;10.50;3.60;;;10.80;99.90;;;11.67;50.75;101931.75;4818993;28;99033;-49
2022/12/02 03:14:31;;;;;;;6.70;2.80;;;10.90;99.90;;;11.65;57.34;101928.25;4833586;28;97024;-47
2022/12/02 03:17:00;;;;;;;7.53;3.63;;;10.80;99.90;;;11.67;51.52;101931.75;4820612;28;98576;-47
2022/12/02 03:19:29;;;;;;;9.40;3.47;;;11.00;99.90;;;11.78;53.57;101930.63;4822096;29;98989;-46
2022/12/02 03:21:56;;;;;;;9.20;4.57;;;10.90;99.90;;;11.88;50.77;101934.00;4835269;28;97274;-48
2022/12/02 03:24:22;;;;;;;6.77;3.07;;;11.10;99.90;;;11.89;55.46;101933.09;4846660;28;99133;-46
2022/12/02 03:26:48;;;;;;;10.13;4.67;;;11.00;99.90;;;11.84;49.70;101937.59;4815870;28;125153;-50
2022/12/02 03:29:14;;;;;;;10.10;4.43;;;11.00;99.90;;;11.73;53.98;101931.63;4830480;28;97199;-48
2022/12/02 03:31:41;;;;;;;8.13;3.43;;;10.90;99.90;;;11.90;57.63;101930.41;4815971;28;111880;-47
2022/12/02 03:34:08;;;;;;;8.93;3.43;;;11.00;99.90;;;11.92;56.98;101927.75;4842126;28;98726;-49
2022/12/02 03:36:34;;;;;;;10.93;3.70;;;11.10;99.90;;;12.16;56.93;101927.22;4821067;28;96768;-48
2022/12/02 03:39:00;;;;;;;10.30;4.60;;;11.40;99.90;;;11.93;46.47;101921.53;4830911;28;98699;-48
2022/12/02 03:41:27;;;;;;;8.30;3.50;;;11.30;99.90;;;11.63;48.16;101910.66;4831430;28;97352;-50
2022/12/02 03:43:55;;;;;;;11.90;3.93;;;10.90;99.90;;;11.37;48.12;101907.66;4837421;28;96863;-49
2022/12/02 03:46:22;;;;;;;8.37;4.07;;;10.70;99.90;;;11.20;48.42;101907.13;4841272;28;97575;-47
2022/12/02 03:48:48;;;;;;;11.13;4.27;;;10.50;99.90;;;10.97;48.24;101895.19;4842492;28;105978;-46
2022/12/02 03:51:15;;;;;;;9.80;4.30;;;10.30;99.90;;;10.96;52.96;101890.78;4824157;29;98226;-47
2022/12/02 03:53:41;;;;;;;11.37;4.30;;;10.30;99.90;;;11.08;56.76;101894.13;4822628;28;97400;-51
2022/12/02 03:56:08;;;;;;;10.23;4.03;;;10.40;99.90;;;10.86;48.46;101889.25;4821921;28;96725;-51
2022/12/02 03:58:39;;;;;;;11.80;4.43;;;10.30;99.90;;;10.75;49.67;101890.31;4840283;28;97357;-47
2022/12/02 04:01:05;;;;;;;9.80;4.50;;;10.20;99.90;;;10.70;50.43;101893.91;4823529;29;97426;-49
2022/12/02 04:03:31;;;;;;;8.37;4.17;;;10.10;99.90;;;10.66;50.40;101888.69;4836865;28;96880;-49
2022/12/02 04:05:57;;;;;;;7.87;3.47;;;10.00;99.90;;;10.63;53.25;101886.09;4836628;28;97412;-45
2022/12/02 04:08:23;;;;;;;11.03;4.67;;;10.00;99.90;;;10.83;55.20;101878.72;4837635;28;97184;-45
2022/12/02 04:10:49;;;;;;;7.30;4.10;;;10.10;99.90;;;10.85;50.73;101882.22;4836430;28;97450;-47
2022/12/02 04:13:14;;;;;;;9.77;3.43;;;10.20;99.90;;;10.73;50.19;101885.06;4841267;28;101033;-47
2022/12/02 04:15:40;;;;;;;9.70;3.67;;;10.10;99.90;;;11.17;56.71;101884.28;4834121;28;117531;-47
2022/12/02 04:18:06;;;;;;;12.60;3.23;;;10.50;99.90;;;11.35;58.27;101877.75;4836590;28;97267;-46
2022/12/02 04:20:32;;;;;;;13.53;4.50;;;10.70;99.90;;;11.35;53.47;101883.03;4844160;28;97015;-45
2022/12/02 04:22:57;;;;;;;11.17;4.17;;;10.80;99.90;;;11.57;50.79;101884.38;4837833;28;97337;-47
2022/12/02 04:25:23;;;;;;;10.07;3.90;;;11.00;99.90;;;11.67;53.30;101881.53;4833966;28;97316;-45
2022/12/02 04:27:49;;;;;;;12.80;4.67;;;11.00;99.90;;;11.72;49.98;101872.63;4835380;28;108603;-48
2022/12/02 04:30:15;;;;;;;8.10;4.03;;;11.10;99.90;;;11.51;48.28;101873.03;4845660;28;105624;-46
2022/12/02 04:32:40;;;;;;;9.03;3.87;;;10.90;99.90;;;11.42;48.38;101874.09;4835887;28;97447;-46
2022/12/02 04:35:06;;;;;;;12.50;4.93;;;10.70;99.90;;;11.75;52.79;101876.97;4834235;28;116581;-45
2022/12/02 04:37:32;;;;;;;7.97;3.50;;;11.00;99.90;;;11.59;47.70;101872.00;4840519;28;97868;-49
2022/12/02 04:39:58;;;;;;;8.47;3.60;;;10.90;99.90;;;11.40;47.54;101870.59;4835067;28;101189;-47
2022/12/02 04:42:24;;;;;;;7.70;3.30;;;10.70;99.90;;;11.21;50.89;101878.03;4842126;28;99741;-47
2022/12/02 04:44:49;;;;;;;14.77;3.97;;;10.50;99.90;;;11.13;52.92;101872.00;4836513;28;111268;-48
2022/12/02 04:47:15;;;;;;;9.57;4.00;;;10.40;99.90;;;11.11;53.39;101873.81;4838091;28;97080;-49
2022/12/02 04:49:41;;;;;;;10.73;4.47;;;10.40;99.90;;;11.03;49.63;101871.31;4838045;28;110759;-46
2022/12/02 04:52:07;;;;;;;13.50;4.50;;;10.40;99.90;;;10.89;49.34;101873.34;4830046;28;107038;-46
2022/12/02 04:54:32;;;;;;;14.27;4.87;;;10.30;99.90;;;10.87;49.45;101871.63;4835977;28;98137;-49
2022/12/02 04:56:58;;;;;;;8.97;4.80;;;10.30;99.90;;;10.77;49.74;101867.41;4833974;28;99908;-46
2022/12/02 04:59:24;;;;;;;11.33;4.53;;;10.20;99.90;;;10.61;49.61;101864.16;4841939;28;107506;-46
2022/12/02 05:01:49;;;;;;;12.23;4.40;;;10.10;99.90;;;10.74;53.03;101868.31;4835858;28;115148;-46
2022/12/02 05:04:15;;;;;;;13.33;5.87;;;10.00;99.90;;;10.58;50.08;101861.56;4832862;28;108384;-47
2022/12/02 05:06:41;;;;;;;8.70;3.50;;;10.00;99.90;;;10.47;50.49;101859.09;4838003;28;102733;-48
2022/12/02 05:09:07;;;;;;;9.67;4.20;;;9.90;99.90;;;10.38;50.17;101860.09;4832278;28;99869;-46
2022/12/02 05:11:33;;;;;;;11.10;4.33;;;9.90;99.90;;;10.33;50.92;101856.69;4845802;28;97026;-49
2022/12/02 05:13:59;;;;;;;9.83;3.60;;;9.80;99.90;;;10.26;50.72;101849.75;4832125;28;108257;-46
2022/12/02 05:16:24;;;;;;;13.90;4.87;;;9.70;99.90;;;10.22;52.49;101847.19;4834455;28;97455;-47
2022/12/02 05:18:50;;;;;;;12.53;4.37;;;9.70;99.90;;;10.23;50.61;101844.53;4835441;28;109065;-47
2022/12/02 05:21:16;;;;;;;7.70;3.20;;;9.80;99.90;;;10.14;50.72;101844.66;4834606;28;97245;-49
2022/12/02 05:23:41;;;;;;;10.50;4.13;;;9.70;99.90;;;10.12;51.36;101839.38;4834017;28;98559;-48
2022/12/02 05:26:07;;;;;;;10.23;3.87;;;9.60;99.90;;;10.10;51.93;101842.94;4835111;28;112407;-49
2022/12/02 05:28:33;;;;;;;11.60;4.77;;;9.60;99.90;;;10.09;51.49;101843.81;4845776;28;102469;-48
2022/12/02 05:30:59;;;;;;;11.00;4.53;;;9.60;99.90;;;10.04;51.47;101845.66;4839612;28;119616;-46
2022/12/02 05:33:24;;;;;;;15.97;5.07;;;9.60;99.90;;;10.15;56.69;101849.03;4837834;28;99638;-47
2022/12/02 05:35:50;;;;;;;15.60;6.60;;;9.60;99.90;;;10.45;57.85;101845.06;4838898;28;108380;-51
2022/12/02 05:38:16;;;;;;;11.63;5.20;;;9.80;99.90;;;10.38;52.30;101835.50;4827720;28;98169;-50
2022/12/02 05:40:42;;;;;;;10.07;3.83;;;9.80;99.90;;;10.29;51.24;101839.16;4843670;28;97192;-48
2022/12/02 05:43:33;;;;;;;14.57;5.27;;;9.70;99.90;;;10.25;52.27;101839.22;4836060;28;106142;-49
2022/12/02 05:45:58;;;;;;;7.97;5.07;;;9.60;99.90;;;10.15;52.23;101838.47;4810833;29;97445;-46
2022/12/02 05:48:24;;;;;;;14.43;4.73;;;9.60;99.90;;;10.11;52.12;101834.13;4837810;28;99325;-47
2022/12/02 05:50:52;;;;;;;14.87;5.00;;;9.60;99.90;;;10.08;51.56;101839.44;4841396;28;97433;-44
2022/12/02 05:53:23;;;;;;;8.13;3.30;;;9.60;99.90;;;10.07;52.09;101843.84;4835696;28;101687;-45
2022/12/02 05:55:51;;;;;;;13.60;4.90;;;9.60;99.90;;;10.07;52.35;101842.97;4834952;28;97612;-46
2022/12/02 05:58:17;;;;;;;15.73;4.43;;;9.50;99.90;;;10.00;51.99;101836.06;4831721;28;97279;-50
2022/12/02 06:00:45;;;;;;;9.37;4.83;;;9.50;99.90;;;9.95;52.05;101832.59;4840822;28;97216;-46
2022/12/02 06:03:17;;;;;;;13.03;5.03;;;9.50;99.90;;;9.91;52.46;101830.91;4815342;28;97712;-47
2022/12/02 06:05:43;;;;;;;8.87;4.43;;;9.40;99.90;;;10.03;53.77;101836.88;4835482;28;99001;-47
2022/12/02 06:08:27;;;;;;;12.17;5.00;;;9.60;99.90;;;10.09;52.61;101833.28;4831172;28;97486;-47
2022/12/02 06:11:02;;;;;;;10.60;4.50;;;9.70;99.90;;;10.01;52.23;101832.53;4837906;28;98025;-56
2022/12/02 06:13:36;;;;;;;11.37;4.63;;;9.60;99.90;;;9.95;52.18;101829.97;4833800;28;102599;-50
2022/12/02 06:16:06;;;;;;;11.77;4.70;;;9.50;99.90;;;9.90;52.80;101823.91;4833133;28;97389;-51
2022/12/02 06:18:34;;;;;;;16.97;4.60;;;9.40;99.90;;;9.88;52.68;101825.69;4824423;28;97052;-48
2022/12/02 06:21:03;;;;;;;6.50;3.97;;;9.40;99.90;;;9.84;53.28;101825.75;4818538;28;97176;-49
2022/12/02 06:23:32;;;;;;;7.83;4.43;;;9.40;99.90;;;9.87;54.06;101823.97;4817645;29;97354;-48
2022/12/02 06:25:59;;;;;;;14.53;5.53;;;9.40;99.90;;;9.86;52.93;101827.50;4823062;28;113396;-45
2022/12/02 06:28:33;;;;;;;9.93;3.77;;;9.40;99.90;;;9.84;53.36;101832.78;4838503;28;98423;-49
2022/12/02 06:31:10;;;;;;;10.87;4.27;;;9.40;99.90;;;9.89;53.11;101827.44;4826460;28;97136;-48
2022/12/02 06:33:37;;;;;;;19.33;5.73;;;9.40;99.90;;;9.96;52.96;101822.03;4836855;28;98042;-47
2022/12/02 06:36:12;;;;;;;9.97;4.57;;;9.50;99.90;;;10.00;54.25;101820.25;4818467;28;97323;-52
2022/12/02 06:38:50;;;;;;;9.37;4.17;;;9.50;99.90;;;10.02;52.97;101824.59;4835471;28;97346;-52
2022/12/02 06:41:22;;;;;;;16.47;4.30;;;9.50;99.90;;;9.96;52.95;101829.06;4839895;28;97197;-51
2022/12/02 06:46:35;;;;;;;9.77;4.10;;;9.50;99.90;;;9.95;54.37;101822.06;4840876;28;101034;-52
2022/12/02 06:49:20;;;;;;;13.03;5.20;;;9.40;99.90;;;10.08;53.14;101818.34;4832761;28;96835;-52
2022/12/02 06:51:52;;;;;;;13.67;5.57;;;9.60;99.90;;;10.03;52.91;101822.84;4837282;28;97462;-52
2022/12/02 06:54:31;;;;;;;15.90;6.30;;;9.60;99.90;;;10.00;53.09;101820.25;4816787;28;99592;-51
2022/12/02 06:57:00;;;;;;;10.77;4.30;;;9.50;99.90;;;9.96;53.07;101823.81;4829395;28;96614;-48
2022/12/02 06:59:27;;;;;;;9.23;3.70;;;9.50;99.90;;;10.03;54.84;101820.19;4835209;28;99868;-48
2022/12/02 07:02:02;;;;;;;15.00;4.87;;;9.50;99.90;;;10.26;54.79;101823.38;4844834;28;97444;-46
2022/12/02 07:04:33;;;;;;;15.77;6.00;;;9.80;99.90;;;10.52;56.75;101819.44;4830868;28;100360;-47
2022/12/02 07:07:19;;;;;;;14.17;5.17;;;10.00;99.90;;;10.52;51.72;101814.16;4833217;28;96730;-50
2022/12/02 07:09:50;;;;;;;15.70;4.30;;;10.10;99.90;;;10.45;52.47;101823.09;4836373;28;96953;-52
2022/12/02 07:12:21;;;;;;;8.27;4.57;;;9.90;99.90;;;10.53;58.72;101826.47;4838265;28;97711;-51
2022/12/02 07:14:49;;;;;;;12.50;5.00;;;9.90;99.90;;;10.49;51.66;101820.38;4825694;28;97128;-52
2022/12/02 07:17:23;;;;;;;17.23;4.37;;;9.90;99.90;;;10.50;53.28;101826.50;4822565;28;97558;-48
2022/12/02 07:20:14;;;;;;;16.03;5.63;;;9.90;99.90;;;10.38;51.96;101828.44;4842441;28;96956;-45
2022/12/02 07:22:46;;;;;;;13.10;4.83;;;9.90;99.90;;;10.33;53.09;101824.16;4823542;28;97049;-45
2022/12/02 07:25:22;;;;;;;10.93;5.00;;;9.80;99.90;;;10.27;52.69;101819.88;4831438;28;98904;-50
2022/12/02 07:27:50;;;;;;;9.93;4.57;;;9.80;99.90;;;10.37;52.70;101826.72;4823464;28;99101;-48
2022/12/02 07:30:32;;;;;;;11.13;3.70;;;9.90;99.90;;;10.23;52.88;101818.16;4819982;29;97356;-46
2022/12/02 07:32:59;;;;;;;23.10;5.53;;;9.70;99.90;;;10.23;53.42;101823.44;4822273;29;97146;-49
2022/12/02 07:35:25;;;;;;;8.33;3.73;;;9.70;99.90;;;10.21;53.61;101809.41;4837425;28;102870;-49
2022/12/02 07:37:51;;;;;;;11.27;4.53;;;9.70;99.90;;;10.38;53.37;101820.53;4838288;28;97012;-48
2022/12/02 07:40:18;;;;;;;24.73;6.13;;;9.80;99.90;;;10.27;52.43;101813.69;4835305;28;97556;-47
2022/12/02 07:42:44;;;;;;;8.40;4.90;;;9.80;99.90;;;10.59;59.65;101814.03;4836318;28;98349;-52
2022/12/02 07:45:12;;;;;;;11.13;4.43;;;10.00;99.90;;;11.00;58.24;101813.31;4826141;28;96998;-45
2022/12/02 07:47:38;;;;;;;17.30;5.30;;;10.40;99.90;;;10.77;51.38;101815.47;4837938;28;97191;-48
2022/12/02 07:50:06;;;;;;;16.80;5.63;;;10.30;99.90;;;11.03;58.24;101815.00;4837416;28;97141;-50
2022/12/02 07:52:31;;;;;;;11.97;5.10;;;10.30;99.90;;;11.28;56.02;101823.28;4819441;28;97583;-50
2022/12/02 07:54:57;;;;;;;9.13;3.40;;;10.60;99.90;;;11.39;57.95;101810.75;4841109;28;96929;-49
2022/12/02 07:57:23;;;;;;;15.57;4.80;;;10.60;99.90;;;11.53;57.53;101811.31;4835261;28;108676;-48
2022/12/02 07:59:49;;;;;;;12.30;4.10;;;10.80;99.90;;;11.39;53.78;101813.38;4837597;28;109967;-49
2022/12/02 08:02:14;;;;;;;16.63;5.80;;;10.60;99.90;;;11.16;51.63;101813.00;4834074;28;102841;-47
2022/12/02 08:04:40;;;;;;;9.03;3.60;;;10.50;99.90;;;11.69;57.73;101816.28;4833994;28;106624;-45
2022/12/02 08:07:06;;;;;;;14.47;5.17;;;10.90;99.90;;;11.32;50.45;101814.44;4835138;28;99450;-49
2022/12/02 08:09:32;;;;;;;12.20;4.87;;;10.70;99.90;;;11.51;57.11;101812.25;4840996;28;97369;-49
2022/12/02 08:11:58;;;;;;;11.53;5.27;;;10.70;99.90;;;11.24;51.24;101816.34;4840646;28;115140;-48
2022/12/02 08:14:23;;;;;;;13.27;5.30;;;10.60;99.90;;;11.39;57.26;101805.47;4835530;28;102823;-49
2022/12/02 08:16:49;;;;;;;15.30;5.93;;;10.60;99.90;;;11.36;55.01;101805.53;4839750;28;100951;-49
2022/12/02 08:19:15;;;;;;;17.13;4.80;;;10.70;99.90;;;11.12;51.27;101809.53;4832728;28;102003;-48
2022/12/02 08:21:41;;;;;;;12.33;5.00;;;10.50;99.90;;;10.96;52.16;101806.31;4833436;28;97241;-46
2022/12/02 08:24:07;;;;;;;9.63;3.20;;;10.40;99.90;;;11.02;56.81;101806.22;4832273;28;106410;-51
2022/12/02 08:26:33;;;;;;;11.73;4.13;;;10.30;99.90;;;11.13;55.55;101802.47;4836489;28;97299;-49
2022/12/02 08:28:59;;;;;;;20.13;4.73;;;10.40;99.90;;;11.08;55.08;101810.50;4839394;28;96995;-49
2022/12/02 08:31:26;;;;;;;13.57;4.87;;;10.40;99.90;;;10.89;54.22;101802.06;4840444;28;97607;-48
2022/12/02 08:33:52;;;;;;;11.13;5.77;;;10.30;99.90;;;11.12;54.31;101806.00;4835564;28;97595;-49
2022/12/02 08:36:20;;;;;;;11.80;4.57;;;10.50;99.90;;;11.03;55.55;101807.94;4830678;28;97199;-49
2022/12/02 08:38:46;;;;;;;12.70;4.37;;;10.40;99.90;;;11.23;58.32;101807.53;4836978;28;98334;-47
2022/12/02 08:41:13;;;;;;;11.50;4.30;;;10.50;99.90;;;11.09;53.58;101811.38;4833958;28;97363;-45
2022/12/02 08:43:38;;;;;;;16.73;4.50;;;10.40;99.90;;;10.80;53.82;101809.28;4836997;28;96928;-47
2022/12/02 08:46:05;;;;;;;7.20;3.43;;;10.20;99.90;;;10.61;54.34;101809.59;4840521;28;107443;-49
2022/12/02 08:48:31;;;;;;;12.10;5.27;;;9.90;99.90;;;10.40;55.24;101812.59;4836678;28;96790;-46
2022/12/02 08:50:57;;;;;;;12.97;3.93;;;9.70;99.90;;;10.23;55.43;101806.72;4832511;28;106556;-46
2022/12/02 08:53:23;;;;;;;14.33;5.17;;;9.60;99.90;;;10.10;56.19;101811.28;4828244;28;108524;-49
2022/12/02 08:55:49;;;;;;;16.43;5.13;;;9.50;99.90;;;10.03;57.44;101810.53;4836126;28;110489;-48
2022/12/02 08:58:14;;;;;;;10.43;4.57;;;9.50;99.90;;;9.93;57.06;101818.59;4839597;28;97154;-47
2022/12/02 09:00:40;;;;;;;11.00;4.67;;;9.40;99.90;;;9.94;57.65;101812.41;4837612;28;100270;-49
2022/12/02 09:03:08;;;;;;;13.50;4.27;;;9.40;99.90;;;9.86;57.11;101812.53;4835406;28;97471;-48
2022/12/02 09:05:36;;;;;;;15.73;4.43;;;9.30;99.90;;;9.82;57.32;101821.38;4838139;28;96595;-47
2022/12/02 09:08:02;;;;;;;12.53;5.60;;;9.30;99.90;;;9.84;57.56;101814.34;4834695;28;98548;-50
2022/12/02 09:10:29;;;;;;;10.63;4.67;;;9.30;99.90;;;9.84;57.76;101812.56;4834962;28;97391;-47
2022/12/02 09:12:55;;;;;;;10.37;4.00;;;9.30;99.90;;;9.92;57.91;101811.56;4840144;28;98583;-48
2022/12/02 09:15:21;;;;;;;13.03;4.60;;;9.40;99.90;;;9.94;57.40;101809.78;4834398;28;117547;-47
2022/12/02 09:17:48;;;;;;;17.57;5.00;;;9.40;99.90;;;10.10;58.86;101808.66;4839075;28;97480;-47
2022/12/02 09:20:14;;;;;;;13.07;4.87;;;9.50;99.90;;;10.00;57.28;101810.59;4836614;28;96834;-46
2022/12/02 09:22:39;;;;;;;17.60;6.37;;;9.50;99.90;;;10.19;58.36;101810.28;4835413;28;97487;-45
2022/12/02 09:25:06;;;;;;;8.60;3.53;;;9.60;99.90;;;10.36;59.06;101808.28;4836670;28;111392;-51
2022/12/02 09:27:32;;;;;;;6.37;2.87;;;9.80;99.90;;;10.78;61.55;101801.38;4831224;28;97180;-46
2022/12/02 09:29:58;;;;;;;16.87;5.77;;;10.00;99.90;;;10.93;56.99;101811.66;4836599;28;105332;-46
2022/12/02 09:32:23;;;;;;;17.87;5.93;;;10.20;99.90;;;11.08;53.93;101804.34;4816379;29;113095;-47
2022/12/02 09:34:49;;;;;;;14.23;5.00;;;10.50;99.90;;;11.26;58.77;101811.91;4840758;28;110104;-48
2022/12/02 09:37:15;;;;;;;13.67;4.40;;;10.50;99.90;;;11.03;54.40;101807.09;4833365;28;96858;-46
2022/12/02 09:39:41;;;;;;;16.77;5.73;;;10.40;99.90;;;11.18;57.61;101805.91;4834358;28;97278;-45
2022/12/02 09:42:08;;;;;;;9.80;4.40;;;10.40;99.90;;;11.02;55.08;101805.34;4834398;28;97434;-55
2022/12/02 09:44:36;;;;;;;10.77;3.77;;;10.30;99.90;;;10.98;56.12;101801.88;4838006;28;100171;-52
2022/12/02 09:47:01;;;;;;;6.33;3.50;;;10.30;99.90;;;11.00;59.64;101802.75;4838549;28;98864;-47
2022/12/02 09:49:27;;;;;;;14.37;5.13;;;10.20;99.90;;;11.03;54.96;101807.94;4830408;28;100819;-48
2022/12/02 09:51:59;;;;;;;9.97;3.00;;;10.30;99.90;;;11.55;59.02;101801.59;4837187;28;105464;-48
2022/12/02 09:54:25;;;;;;;11.07;4.23;;;10.80;99.90;;;11.52;53.31;101804.31;4818439;29;96978;-48
2022/12/02 09:56:51;;;;;;;11.50;4.93;;;10.90;99.90;;;11.48;53.29;101800.00;4825402;28;97179;-46
2022/12/02 09:59:17;;;;;;;8.87;3.63;;;10.80;99.90;;;11.58;57.99;101790.97;4835650;28;104559;-46
2022/12/02 10:01:46;;;;;;;17.37;4.57;;;10.80;99.90;;;12.04;54.61;101800.53;4838683;28;98559;-49
2022/12/02 10:04:23;;;;;;;10.00;4.17;;;11.40;99.90;;;11.90;52.57;101802.63;4819172;28;97411;-49
2022/12/02 10:06:49;;;;;;;14.00;4.37;;;11.30;99.90;;;11.97;52.99;101798.06;4837925;28;97361;-49
2022/12/02 10:09:29;;;;;;;14.27;4.57;;;11.20;99.90;;;12.14;56.53;101794.09;4827397;28;97566;-46
2022/12/02 10:11:55;;;;;;;7.03;3.50;;;11.30;99.90;;;12.00;52.63;101792.69;4813604;28;113031;-46
2022/12/02 10:14:21;;;;;;;8.83;4.30;;;11.10;99.90;;;11.82;52.00;101794.84;4832905;28;116774;-47
2022/12/02 10:16:47;;;;;;;11.00;4.37;;;11.00;99.90;;;11.72;52.24;101792.44;4803311;28;119160;-50
2022/12/02 10:19:18;;;;;;;7.30;3.37;;;10.90;99.90;;;11.95;57.76;101798.09;4834740;28;97360;-48